Airfield :
LOGIN :

Register | Disclaimer

   EN    FR    IT 

 










Legend :    VFR   Marginal VFR   IFR   Intensive IFR   Very Intensive IFR
Visi :
Ceiling :
>= 8 km
>= 3000ft
5 to 8 km
1000 to 3000 ft
1500m to 5 km
500 to 1000 ft
800 to 1500m
200 to 500 ft
< 800m
< 200 ft
Symbols :   Thunderstorms  Fog  Heavy snow  Heavy precipitations  Wind > 20 kt
SIGMETs :     Misc.  Thunderstorms  Icing  Turbulence  Mountain Waves  Volcanic Ashes






- Airport Elevation : 256 ft
- IATA code : KUN


EYKA - Kaunas

CURRENT METAR :
  • 250120Z 25005KT 210V290 9999 BKN009 OVC021 10/08 Q1012

EXPIRED METARs :
  • 250050Z 23004KT 9999 OVC009 10/08 Q1012
  • 250020Z AUTO 25004KT 9999 BKN009/// OVC013/// 10/08 Q1012
  • 242350Z AUTO 24005KT 9999 BKN012/// OVC021/// 10/08 Q1012
  • 242320Z AUTO 25007KT 9999 SCT019/// 10/08 Q1012
  • 242250Z AUTO 25009KT 9999 SCT011/// OVC071/// 10/08 Q1012
  • 242220Z AUTO 25010KT 9999 BKN011/// OVC072/// 10/08 Q1012
  • 242150Z AUTO 24009KT 200V260 9999 NCD 10/08 Q1011

TAF TAF EYKA
Valid from the 25 at 00:00 until the 26 at 00:00 UTC


242301Z 2500/2524 24008KT 5000 BR SCT005 BKN010
TEMPO 2502/2508 0500 FG VV002
BECMG 2509/2510 18010KT 8000 NSW SCT005 BKN015
BECMG 2518/2520 BKN005



MET'MAP, your aeronautical weather chart ! - Copyright ORBIFLY December 2007 - Disclaimer

ORBIFLY MET'MAP TEAM :

Programming & Development : Alexandra Zaïnal
Concept & original design : Baudouin d'Aumeries
Assistance for programming : Marc-Olivier Méhu
Technical & hardware support : Manuel Goepfert

Contact : metmap@orbifly.com




SOURCES & CREDITS :

   NOAA